createdAt,value
2022-10-05T00:00:22.956Z,6.25
2022-10-05T00:02:50.128Z,6.30
2022-10-05T00:05:19.919Z,6.60
2022-10-05T00:07:46.286Z,6.43
2022-10-05T00:10:16.655Z,6.75
2022-10-05T00:12:46.096Z,6.35
2022-10-05T00:15:13.759Z,6.28
2022-10-05T00:17:41.318Z,6.25
2022-10-05T00:20:33.811Z,7.00
2022-10-05T00:23:01.800Z,6.05
2022-10-05T00:25:28.346Z,6.22
2022-10-05T00:27:55.894Z,5.78
2022-10-05T00:30:22.502Z,6.55
2022-10-05T00:32:49.131Z,6.60
2022-10-05T00:35:16.724Z,5.93
2022-10-05T00:37:43.576Z,6.10
2022-10-05T00:40:30.260Z,5.90
2022-10-05T00:43:08.767Z,5.88
2022-10-05T00:45:37.744Z,5.88
2022-10-05T00:48:14.798Z,6.13
2022-10-05T00:50:51.827Z,6.15
2022-10-05T00:53:47.484Z,5.40
2022-10-05T00:56:28.303Z,5.82
2022-10-05T00:59:15.011Z,6.38
2022-10-05T01:01:47.820Z,5.82
2022-10-05T01:04:21.882Z,5.63
2022-10-05T01:07:03.264Z,5.80
2022-10-05T01:09:32.802Z,5.93
2022-10-05T01:12:13.203Z,5.80
2022-10-05T01:14:39.453Z,5.90
2022-10-05T01:17:09.886Z,6.10
2022-10-05T01:19:54.915Z,6.40
2022-10-05T01:22:27.367Z,5.95
2022-10-05T01:27:29.098Z,6.32
2022-10-05T01:29:58.513Z,6.20
2022-10-05T01:32:48.997Z,6.40
2022-10-05T01:35:25.490Z,5.90
2022-10-05T01:38:00.888Z,6.22
2022-10-05T01:40:31.152Z,6.13
2022-10-05T01:43:03.791Z,6.95
2022-10-05T01:45:45.200Z,6.97
2022-10-05T01:48:17.479Z,7.43
2022-10-05T01:51:02.120Z,7.93
2022-10-05T01:53:43.124Z,7.85
2022-10-05T01:56:15.847Z,7.75
2022-10-05T01:58:42.297Z,7.60
2022-10-05T02:01:30.051Z,8.00
2022-10-05T02:04:08.919Z,7.82
2022-10-05T02:06:38.868Z,7.32
2022-10-05T02:09:16.479Z,8.52
2022-10-05T02:11:44.502Z,7.72
2022-10-05T02:14:12.549Z,8.48
2022-10-05T02:16:41.951Z,8.82
2022-10-05T02:19:14.534Z,7.80
2022-10-05T02:21:44.682Z,8.25
2022-10-05T02:24:16.079Z,7.53
2022-10-05T02:26:42.561Z,8.52
2022-10-05T02:29:11.339Z,7.88
2022-10-05T02:31:50.486Z,8.85
2022-10-05T02:34:26.087Z,8.63
2022-10-05T02:37:15.044Z,8.38
2022-10-05T02:40:05.591Z,8.50
2022-10-05T02:42:52.151Z,8.77
2022-10-05T02:45:23.022Z,8.95
2022-10-05T02:48:12.867Z,9.38
2022-10-05T02:50:51.737Z,8.18
2022-10-05T02:53:33.860Z,8.75
2022-10-05T02:56:10.932Z,8.23
2022-10-05T02:58:48.974Z,8.80
2022-10-05T03:01:25.433Z,8.65
2022-10-05T03:03:51.856Z,8.52
2022-10-05T03:06:26.575Z,8.10
2022-10-05T03:08:59.976Z,8.10
2022-10-05T03:11:27.598Z,8.10
2022-10-05T03:14:04.052Z,7.40
2022-10-05T03:16:31.518Z,7.85
2022-10-05T03:19:06.850Z,6.82
2022-10-05T03:21:46.207Z,7.90
2022-10-05T03:24:37.053Z,7.28
2022-10-05T03:27:05.151Z,7.22
2022-10-05T03:29:37.615Z,7.18
2022-10-05T03:32:05.932Z,7.07
2022-10-05T03:34:32.855Z,7.50
2022-10-05T03:37:03.247Z,7.82
2022-10-05T03:39:35.633Z,7.43
2022-10-05T03:42:22.966Z,7.43
2022-10-05T03:44:52.896Z,6.57
2022-10-05T03:47:38.125Z,6.90
2022-10-05T03:50:05.037Z,7.78
2022-10-05T03:52:46.723Z,6.85
2022-10-05T03:55:20.998Z,6.63
2022-10-05T03:57:48.781Z,6.72
2022-10-05T04:00:15.126Z,6.18
2022-10-05T04:02:52.998Z,7.20
2022-10-05T04:05:23.604Z,6.15
2022-10-05T04:07:58.590Z,7.13
2022-10-05T04:10:27.161Z,7.25
2022-10-05T04:13:05.804Z,5.93
2022-10-05T04:15:36.145Z,6.20
2022-10-05T04:18:07.230Z,6.93
2022-10-05T04:20:40.884Z,6.05
2022-10-05T04:23:10.604Z,5.80
2022-10-05T04:25:41.007Z,5.95
2022-10-05T04:28:14.278Z,5.88
2022-10-05T04:30:44.045Z,5.88
2022-10-05T04:33:12.573Z,5.65
2022-10-05T04:35:53.670Z,5.93
2022-10-05T04:38:29.615Z,5.43
2022-10-05T04:41:14.684Z,5.68
2022-10-05T04:43:53.736Z,5.13
2022-10-05T04:46:45.956Z,5.68
2022-10-05T04:49:21.527Z,5.57
2022-10-05T04:51:57.052Z,5.28
2022-10-05T04:54:26.676Z,5.15
2022-10-05T04:56:55.136Z,5.47
2022-10-05T04:59:25.388Z,5.28
2022-10-05T05:01:57.257Z,5.13
2022-10-05T05:07:09.222Z,5.32
2022-10-05T05:09:56.807Z,5.55
2022-10-05T05:12:41.958Z,5.07
2022-10-05T05:15:15.404Z,5.30
2022-10-05T05:17:42.064Z,4.38
2022-10-05T05:20:20.545Z,4.57
2022-10-05T05:22:57.384Z,4.63
2022-10-05T05:25:34.550Z,3.53
2022-10-05T05:28:15.250Z,3.15
2022-10-05T05:31:02.562Z,3.50
2022-10-05T05:33:35.576Z,3.35
2022-10-05T05:36:10.703Z,2.67
2022-10-05T05:38:41.740Z,3.05
2022-10-05T05:41:24.960Z,2.45
2022-10-05T05:44:05.989Z,2.90
2022-10-05T05:47:02.271Z,3.00
2022-10-05T05:49:36.034Z,2.85
2022-10-05T05:52:06.236Z,2.85
2022-10-05T05:54:38.750Z,3.00
2022-10-05T05:57:08.012Z,2.55
2022-10-05T05:59:51.604Z,2.80
2022-10-05T06:02:20.261Z,2.78
2022-10-05T06:04:51.060Z,2.83
2022-10-05T06:07:20.711Z,3.67
2022-10-05T06:09:49.938Z,3.00
2022-10-05T06:12:36.339Z,3.70
2022-10-05T06:15:06.299Z,4.00
2022-10-05T06:17:53.021Z,4.00
2022-10-05T06:20:22.537Z,4.15
2022-10-05T06:22:49.921Z,3.85
2022-10-05T06:25:25.642Z,4.43
2022-10-05T06:28:11.216Z,4.00
2022-10-05T06:30:50.838Z,3.65
2022-10-05T06:33:24.151Z,4.60
2022-10-05T06:36:08.846Z,3.90
2022-10-05T06:38:54.150Z,4.25
2022-10-05T06:41:27.459Z,4.10
2022-10-05T06:44:13.660Z,3.97
2022-10-05T06:47:03.898Z,4.30
2022-10-05T06:50:15.175Z,3.75
2022-10-05T06:53:08.303Z,3.90
2022-10-05T06:55:41.867Z,4.30
2022-10-05T06:58:09.216Z,4.45
2022-10-05T07:00:46.163Z,4.10
2022-10-05T07:03:37.273Z,3.95
2022-10-05T07:06:08.764Z,4.18
2022-10-05T07:08:35.404Z,4.00
2022-10-05T07:11:11.348Z,4.05
2022-10-05T07:13:51.273Z,4.60
2022-10-05T07:16:36.318Z,4.90
2022-10-05T07:19:21.521Z,4.43
2022-10-05T07:22:00.284Z,3.83
2022-10-05T07:24:41.713Z,4.10
2022-10-05T07:27:19.572Z,3.95
2022-10-05T07:29:49.970Z,4.35
2022-10-05T07:32:35.596Z,4.18
2022-10-05T07:35:36.670Z,3.63
2022-10-05T07:38:21.547Z,3.92
2022-10-05T07:40:49.891Z,3.95
2022-10-05T07:43:25.676Z,4.00
2022-10-05T07:45:56.965Z,3.67
2022-10-05T07:48:33.034Z,4.72
2022-10-05T07:51:16.348Z,3.97
2022-10-05T07:53:48.517Z,3.93
2022-10-05T07:56:21.225Z,3.78
2022-10-05T07:58:51.606Z,3.75
2022-10-05T08:01:44.847Z,3.58
2022-10-05T08:04:15.280Z,3.50
2022-10-05T08:06:44.953Z,4.20
2022-10-05T08:09:23.705Z,3.85
2022-10-05T08:11:56.473Z,3.63
2022-10-05T08:14:34.747Z,4.05
2022-10-05T08:17:07.868Z,3.45
2022-10-05T08:19:39.474Z,3.72
2022-10-05T08:22:08.559Z,3.90
2022-10-05T08:24:37.375Z,3.85
2022-10-05T08:27:11.708Z,3.80
2022-10-05T08:29:41.207Z,3.85
2022-10-05T08:32:37.640Z,3.88
2022-10-05T08:35:21.450Z,4.03
2022-10-05T08:37:49.347Z,3.80
2022-10-05T08:40:18.712Z,3.80
2022-10-05T08:43:00.227Z,4.20
2022-10-05T08:45:42.639Z,3.70
2022-10-05T08:48:21.371Z,4.00
2022-10-05T08:51:10.494Z,3.90
2022-10-05T08:53:49.861Z,3.78
2022-10-05T08:56:28.771Z,3.97
2022-10-05T08:59:07.679Z,3.50
2022-10-05T09:01:52.654Z,3.63
2022-10-05T09:04:33.134Z,3.15
2022-10-05T09:07:06.478Z,3.35
2022-10-05T09:09:35.879Z,2.90
2022-10-05T09:12:11.090Z,3.47
2022-10-05T09:15:13.386Z,3.33
2022-10-05T09:17:57.336Z,3.15
2022-10-05T09:20:30.808Z,2.65
2022-10-05T09:22:58.514Z,2.70
2022-10-05T09:25:24.793Z,2.85
2022-10-05T09:28:17.257Z,2.88
2022-10-05T09:30:57.570Z,2.63
2022-10-05T09:33:51.778Z,2.35
2022-10-05T09:36:31.793Z,2.38
2022-10-05T09:39:16.769Z,2.35
2022-10-05T09:41:43.039Z,2.10
2022-10-05T09:44:18.739Z,2.05
2022-10-05T09:46:47.811Z,2.60
2022-10-05T09:49:23.317Z,2.00
2022-10-05T09:51:52.345Z,2.63
2022-10-05T09:54:37.391Z,2.38
2022-10-05T09:57:04.057Z,2.60
2022-10-05T09:59:49.230Z,3.00
2022-10-05T10:02:38.790Z,2.50
2022-10-05T10:05:14.608Z,2.30
2022-10-05T10:07:56.191Z,2.03
2022-10-05T10:10:29.158Z,2.20
2022-10-05T10:12:58.190Z,1.67
2022-10-05T10:16:03.173Z,2.42
2022-10-05T10:18:40.561Z,2.20
2022-10-05T10:21:06.817Z,2.20
2022-10-05T10:23:33.072Z,2.40
2022-10-05T10:26:05.105Z,2.40
2022-10-05T10:28:49.539Z,2.72
2022-10-05T10:31:34.709Z,2.65
2022-10-05T10:34:19.134Z,2.53
2022-10-05T10:36:55.671Z,2.95
2022-10-05T10:39:21.926Z,2.85
2022-10-05T10:41:57.082Z,2.80
2022-10-05T10:44:41.956Z,2.67
2022-10-05T10:47:17.389Z,2.83
2022-10-05T10:49:46.393Z,3.17
2022-10-05T10:52:31.391Z,2.63
2022-10-05T10:55:16.561Z,3.17
2022-10-05T10:57:51.686Z,3.17
2022-10-05T11:00:36.668Z,3.15
2022-10-05T11:03:11.750Z,3.25
2022-10-05T11:05:47.942Z,3.03
2022-10-05T11:08:27.277Z,3.30
2022-10-05T11:11:17.366Z,2.88
2022-10-05T11:13:56.290Z,3.97
2022-10-05T11:16:22.634Z,2.90
2022-10-05T11:19:02.596Z,3.13
2022-10-05T11:21:36.542Z,3.65
2022-10-05T11:24:17.847Z,3.60
2022-10-05T11:26:44.471Z,3.13
2022-10-05T11:29:29.711Z,3.55
2022-10-05T11:32:01.911Z,4.05
2022-10-05T11:34:41.833Z,2.90
2022-10-05T11:37:37.453Z,6.90
2022-10-05T11:40:23.598Z,3.80
2022-10-05T11:43:01.994Z,2.63
2022-10-05T11:45:36.125Z,2.90
2022-10-05T11:48:07.158Z,3.20
2022-10-05T11:50:42.265Z,2.67
2022-10-05T11:53:15.777Z,2.90
2022-10-05T11:55:42.068Z,2.78
2022-10-05T11:58:23.450Z,3.20
2022-10-05T12:00:56.588Z,2.55
2022-10-05T12:03:31.369Z,2.60
2022-10-05T12:06:08.572Z,2.75
2022-10-05T12:08:42.535Z,2.30
2022-10-05T12:11:08.912Z,2.70
2022-10-05T12:13:41.990Z,2.30
2022-10-05T12:16:14.160Z,2.78
2022-10-05T12:18:59.861Z,2.55
2022-10-05T12:21:33.622Z,2.15
2022-10-05T12:24:03.263Z,2.30
2022-10-05T12:26:34.002Z,3.03
2022-10-05T12:29:07.608Z,2.33
2022-10-05T12:31:39.765Z,2.80
2022-10-05T12:34:08.880Z,2.70
2022-10-05T12:37:03.158Z,2.55
2022-10-05T12:39:34.924Z,2.20
2022-10-05T12:42:07.625Z,2.38
2022-10-05T12:44:57.032Z,2.28
2022-10-05T12:47:40.839Z,2.45
2022-10-05T12:50:13.640Z,2.50
2022-10-05T12:52:39.986Z,2.45
2022-10-05T12:55:21.818Z,2.05
2022-10-05T12:58:05.378Z,2.10
2022-10-05T13:00:34.168Z,2.30
2022-10-05T13:03:03.018Z,2.67
2022-10-05T13:05:59.008Z,2.33
2022-10-05T13:08:42.673Z,2.38
2022-10-05T13:11:15.280Z,2.45
2022-10-05T13:13:41.615Z,2.40
2022-10-05T13:16:26.607Z,2.65
2022-10-05T13:18:54.227Z,2.28
2022-10-05T13:21:32.822Z,2.35
2022-10-05T13:24:04.934Z,2.25
2022-10-05T13:26:33.972Z,2.20
2022-10-05T13:29:15.171Z,2.83
2022-10-05T13:31:51.086Z,1.90
2022-10-05T13:34:28.724Z,3.08
2022-10-05T13:37:06.242Z,2.42
2022-10-05T13:39:38.506Z,2.25
2022-10-05T13:44:58.804Z,2.50
2022-10-05T13:47:38.785Z,2.17
2022-10-05T13:50:16.553Z,2.42
2022-10-05T13:52:45.816Z,2.15
2022-10-05T13:55:22.329Z,2.28
2022-10-05T13:57:57.714Z,2.10
2022-10-05T14:00:27.095Z,2.67
2022-10-05T14:02:56.399Z,2.25
2022-10-05T14:05:30.142Z,2.15
2022-10-05T14:08:02.314Z,2.38
2022-10-05T14:10:31.356Z,2.22
2022-10-05T14:12:57.983Z,2.15
2022-10-05T14:15:32.465Z,2.17
2022-10-05T14:17:58.914Z,2.28
2022-10-05T14:20:26.767Z,1.95
2022-10-05T14:22:58.067Z,2.17
2022-10-05T14:25:24.570Z,1.80
2022-10-05T14:28:09.443Z,2.00
2022-10-05T14:30:35.804Z,2.25
2022-10-05T14:33:02.071Z,2.10
2022-10-05T14:35:51.326Z,1.77
2022-10-05T14:38:22.539Z,2.15
2022-10-05T14:41:15.939Z,2.80
2022-10-05T14:44:08.888Z,2.00
2022-10-05T14:46:36.237Z,2.30
2022-10-05T14:49:17.903Z,2.38
2022-10-05T14:51:44.321Z,2.35
2022-10-05T14:54:25.793Z,1.70
2022-10-05T14:57:18.275Z,1.98
2022-10-05T14:59:56.712Z,2.05
2022-10-05T15:02:35.414Z,1.77
2022-10-05T15:05:05.642Z,1.85
2022-10-05T15:07:39.663Z,1.83
2022-10-05T15:10:26.720Z,2.55
2022-10-05T15:12:55.046Z,1.60
2022-10-05T15:15:30.296Z,1.90
2022-10-05T15:18:01.437Z,2.13
2022-10-05T15:20:44.247Z,2.03
2022-10-05T15:23:11.167Z,1.90
2022-10-05T15:25:52.305Z,1.95
2022-10-05T15:28:24.494Z,2.10
2022-10-05T15:31:01.335Z,2.00
2022-10-05T15:33:31.351Z,1.90
2022-10-05T15:36:00.560Z,2.00
2022-10-05T15:38:29.855Z,1.77
2022-10-05T15:40:58.818Z,2.05
2022-10-05T15:43:30.290Z,2.22
2022-10-05T15:46:01.429Z,1.93
2022-10-05T15:48:35.852Z,2.30
2022-10-05T15:51:15.338Z,1.88
2022-10-05T15:53:44.219Z,2.40
2022-10-05T15:56:19.383Z,2.38
2022-10-05T15:58:56.915Z,1.92
2022-10-05T16:01:32.426Z,1.92
2022-10-05T16:04:04.542Z,2.15
2022-10-05T16:06:59.556Z,2.35
2022-10-05T16:09:37.815Z,2.33
2022-10-05T16:12:13.204Z,1.77
2022-10-05T16:14:39.462Z,2.08
2022-10-05T16:17:05.823Z,2.17
2022-10-05T16:19:38.072Z,1.83
2022-10-05T16:22:20.462Z,2.13
2022-10-05T16:24:52.005Z,1.88
2022-10-05T16:27:36.833Z,1.60
2022-10-05T16:30:09.530Z,2.00
2022-10-05T16:32:49.893Z,1.90
2022-10-05T16:35:24.815Z,2.00
2022-10-05T16:38:05.487Z,2.00
2022-10-05T16:40:44.054Z,1.70
2022-10-05T16:43:10.306Z,1.77
2022-10-05T16:45:49.468Z,2.08
2022-10-05T16:48:30.811Z,2.20
2022-10-05T16:51:15.988Z,2.22
2022-10-05T16:53:44.935Z,1.77
2022-10-05T16:56:19.567Z,2.40
2022-10-05T16:58:53.022Z,1.80
2022-10-05T17:01:19.337Z,2.20
2022-10-05T17:03:53.400Z,1.65
2022-10-05T17:06:25.881Z,2.08
2022-10-05T17:09:10.603Z,2.05
2022-10-05T17:12:03.438Z,1.75
2022-10-05T17:17:15.793Z,2.00
2022-10-05T17:19:58.498Z,2.30
2022-10-05T17:22:24.874Z,2.20
2022-10-05T17:24:54.045Z,2.20
2022-10-05T17:27:32.777Z,1.98
2022-10-05T17:30:17.627Z,2.38
2022-10-05T17:33:14.105Z,2.25
2022-10-05T17:35:51.639Z,1.98
2022-10-05T17:38:23.188Z,1.83
2022-10-05T17:41:06.217Z,2.10
2022-10-05T17:43:33.250Z,1.92
2022-10-05T17:46:06.739Z,2.00
2022-10-05T17:48:37.411Z,2.30
2022-10-05T17:51:33.471Z,2.22
2022-10-05T17:54:36.271Z,1.90
2022-10-05T17:57:02.814Z,2.90
2022-10-05T17:59:51.160Z,2.00
2022-10-05T18:02:40.760Z,2.55
2022-10-05T18:05:14.411Z,2.20
2022-10-05T18:07:50.748Z,2.10
2022-10-05T18:10:29.806Z,2.45
2022-10-05T18:12:59.122Z,2.38
2022-10-05T18:15:25.408Z,2.10
2022-10-05T18:17:57.462Z,2.22
2022-10-05T18:20:23.765Z,2.20
2022-10-05T18:22:52.964Z,2.40
2022-10-05T18:25:22.760Z,2.13
2022-10-05T18:27:55.313Z,2.35
2022-10-05T18:30:25.711Z,2.92
2022-10-05T18:33:10.961Z,2.17
2022-10-05T18:35:49.474Z,2.25
2022-10-05T18:38:27.622Z,2.30
2022-10-05T18:41:00.261Z,2.08
2022-10-05T18:43:32.691Z,2.40
2022-10-05T18:48:45.889Z,2.00
2022-10-05T18:51:12.503Z,2.28
2022-10-05T18:53:42.368Z,2.10
2022-10-05T18:56:28.715Z,3.00
2022-10-05T18:58:57.052Z,2.55
2022-10-05T19:01:42.203Z,2.47
2022-10-05T19:04:14.877Z,2.30
2022-10-05T19:06:56.303Z,2.25
2022-10-05T19:09:34.799Z,2.40
2022-10-05T19:12:11.949Z,2.42
2022-10-05T19:14:51.018Z,2.60
2022-10-05T19:17:20.379Z,3.00
2022-10-05T19:20:07.700Z,2.85
2022-10-05T19:22:36.877Z,2.80
2022-10-05T19:25:17.343Z,2.22
2022-10-05T19:27:46.820Z,2.35
2022-10-05T19:30:23.830Z,2.45
2022-10-05T19:32:53.090Z,2.53
2022-10-05T19:35:43.823Z,2.70
2022-10-05T19:38:20.708Z,2.60
2022-10-05T19:40:59.018Z,2.40
2022-10-05T19:43:28.527Z,3.03
2022-10-05T19:46:17.766Z,3.40
2022-10-05T19:48:48.374Z,2.20
2022-10-05T19:51:29.280Z,1.35
2022-10-05T19:54:01.307Z,1.42
2022-10-05T19:56:30.991Z,0.90
2022-10-05T19:58:59.233Z,1.27
2022-10-05T20:01:39.979Z,0.93
2022-10-05T20:04:06.983Z,1.20
2022-10-05T20:06:33.935Z,1.00
2022-10-05T20:09:17.650Z,1.17
2022-10-05T20:11:51.312Z,1.00
2022-10-05T20:14:28.356Z,1.50
2022-10-05T20:17:32.403Z,1.23
2022-10-05T20:20:22.583Z,1.20
2022-10-05T20:22:48.895Z,0.90
2022-10-05T20:25:21.107Z,0.98
2022-10-05T20:27:48.939Z,0.93
2022-10-05T20:30:22.319Z,1.20
2022-10-05T20:32:56.215Z,1.00
2022-10-05T20:35:22.919Z,1.17
2022-10-05T20:37:52.061Z,0.90
2022-10-05T20:40:20.132Z,1.30
2022-10-05T20:42:47.152Z,1.77
2022-10-05T20:45:13.871Z,1.10
2022-10-05T20:47:40.583Z,1.30
2022-10-05T20:50:09.012Z,2.33
2022-10-05T20:52:37.148Z,1.50
2022-10-05T20:55:08.684Z,1.42
2022-10-05T20:57:38.386Z,1.30
2022-10-05T21:00:05.264Z,1.23
2022-10-05T21:02:31.582Z,1.40
2022-10-05T21:04:58.029Z,1.40
2022-10-05T21:07:25.670Z,1.42
2022-10-05T21:09:52.074Z,0.90
2022-10-05T21:12:18.445Z,1.00
2022-10-05T21:14:45.290Z,1.15
2022-10-05T21:17:12.410Z,0.93
2022-10-05T21:19:39.385Z,1.17
2022-10-05T21:22:09.561Z,1.02
2022-10-05T21:24:36.796Z,0.73
2022-10-05T21:27:03.290Z,0.98
2022-10-05T21:29:30.131Z,1.00
2022-10-05T21:31:56.523Z,1.05
2022-10-05T21:34:23.130Z,0.88
2022-10-05T21:36:49.486Z,0.80
2022-10-05T21:39:15.860Z,0.80
2022-10-05T21:41:42.190Z,0.82
2022-10-05T21:44:08.499Z,0.70
2022-10-05T21:46:35.779Z,1.20
2022-10-05T21:49:02.247Z,0.82
2022-10-05T21:51:28.615Z,0.88
2022-10-05T21:53:56.793Z,0.80
2022-10-05T21:56:24.829Z,1.00
2022-10-05T21:58:51.384Z,0.70
2022-10-05T22:01:22.485Z,0.73
2022-10-05T22:03:49.434Z,0.90
2022-10-05T22:06:15.745Z,0.80
2022-10-05T22:08:42.006Z,0.90
2022-10-05T22:11:09.367Z,1.30
2022-10-05T22:13:40.783Z,1.02
2022-10-05T22:16:07.174Z,1.20
2022-10-05T22:18:33.515Z,1.17
2022-10-05T22:20:59.823Z,1.08
2022-10-05T22:23:26.093Z,1.30
2022-10-05T22:25:52.951Z,0.90
2022-10-05T22:28:19.344Z,1.25
2022-10-05T22:30:45.974Z,1.25
2022-10-05T22:33:13.164Z,1.70
2022-10-05T22:35:39.686Z,1.13
2022-10-05T22:38:06.042Z,1.42
2022-10-05T22:40:32.379Z,1.30
2022-10-05T22:42:58.736Z,1.23
2022-10-05T22:45:28.117Z,1.70
2022-10-05T22:47:58.016Z,1.52
2022-10-05T22:50:24.355Z,1.45
2022-10-05T22:52:52.096Z,1.40
2022-10-05T22:55:18.379Z,1.45
2022-10-05T22:57:44.843Z,2.15
2022-10-05T23:00:11.516Z,1.67
2022-10-05T23:02:38.613Z,1.88
2022-10-05T23:05:05.930Z,1.73
2022-10-05T23:07:35.945Z,2.05
2022-10-05T23:10:02.556Z,1.83
2022-10-05T23:12:28.968Z,1.40
2022-10-05T23:14:55.268Z,2.10
2022-10-05T23:17:21.648Z,2.35
2022-10-05T23:19:47.973Z,2.13
2022-10-05T23:22:14.256Z,1.98
2022-10-05T23:24:40.533Z,2.13
2022-10-05T23:27:06.830Z,1.80
2022-10-05T23:29:33.118Z,3.25
2022-10-05T23:31:59.398Z,2.17
2022-10-05T23:34:27.188Z,2.17
2022-10-05T23:36:53.487Z,2.10
2022-10-05T23:39:19.858Z,1.95
2022-10-05T23:41:46.174Z,2.17
2022-10-05T23:44:12.490Z,2.25
2022-10-05T23:46:38.784Z,2.53
2022-10-05T23:49:05.072Z,2.80
2022-10-05T23:51:31.421Z,2.47
2022-10-05T23:53:57.699Z,2.22
2022-10-05T23:56:24.101Z,3.08
2022-10-05T23:58:50.415Z,2.60
